createdAt,value
2022-10-01T00:01:19.980Z,30.77
2022-10-01T00:03:49.329Z,25.85
2022-10-01T00:06:20.050Z,23.98
2022-10-01T00:08:51.193Z,26.30
2022-10-01T00:11:21.235Z,22.58
2022-10-01T00:13:50.315Z,21.70
2022-10-01T00:16:20.547Z,25.58
2022-10-01T00:18:50.641Z,23.45
2022-10-01T00:21:21.193Z,27.58
2022-10-01T00:23:49.312Z,21.75
2022-10-01T00:26:20.912Z,23.83
2022-10-01T00:28:53.804Z,27.60
2022-10-01T00:31:21.897Z,22.65
2022-10-01T00:33:53.159Z,23.17
2022-10-01T00:36:21.356Z,27.27
2022-10-01T00:38:49.307Z,25.48
2022-10-01T00:41:18.662Z,29.77
2022-10-01T00:43:48.438Z,23.52
2022-10-01T00:46:21.199Z,26.42
2022-10-01T00:48:58.148Z,27.92
2022-10-01T00:51:29.608Z,29.27
2022-10-01T00:54:05.254Z,25.58
2022-10-01T00:56:34.187Z,27.50
2022-10-01T00:59:02.904Z,25.55
2022-10-01T01:01:31.263Z,26.73
2022-10-01T01:04:00.967Z,27.23
2022-10-01T01:06:29.102Z,28.58
2022-10-01T01:08:57.740Z,23.77
2022-10-01T01:11:33.189Z,27.65
2022-10-01T01:14:07.053Z,33.47
2022-10-01T01:16:39.840Z,29.20
2022-10-01T01:19:21.557Z,24.52
2022-10-01T01:21:53.928Z,27.67
2022-10-01T01:24:48.370Z,30.00
2022-10-01T01:27:26.682Z,26.42
2022-10-01T01:30:04.173Z,27.27
2022-10-01T01:32:42.763Z,30.02
2022-10-01T01:35:12.493Z,24.88
2022-10-01T01:37:43.831Z,26.95
2022-10-01T01:40:13.466Z,34.92
2022-10-01T01:42:44.958Z,32.90
2022-10-01T01:45:18.089Z,34.00
2022-10-01T01:47:46.946Z,31.10
2022-10-01T01:50:17.643Z,28.58
2022-10-01T01:52:45.936Z,26.98
2022-10-01T01:55:14.535Z,26.33
2022-10-01T01:57:45.226Z,27.42
2022-10-01T02:00:14.856Z,27.45
2022-10-01T02:02:50.187Z,24.42
2022-10-01T02:05:20.948Z,27.70
2022-10-01T02:08:08.667Z,25.98
2022-10-01T02:10:50.018Z,27.55
2022-10-01T02:13:30.587Z,33.33
2022-10-01T02:16:07.247Z,29.98
2022-10-01T02:18:42.095Z,33.70
2022-10-01T02:21:17.268Z,35.50
2022-10-01T02:23:53.245Z,33.42
2022-10-01T02:26:23.912Z,32.92
2022-10-01T02:28:55.823Z,36.78
2022-10-01T02:31:25.273Z,37.95
2022-10-01T02:33:54.898Z,33.90
2022-10-01T02:36:25.050Z,33.42
2022-10-01T02:38:55.739Z,34.53
2022-10-01T02:41:29.687Z,36.83
2022-10-01T02:44:01.342Z,39.30
2022-10-01T02:46:42.216Z,37.60
2022-10-01T02:49:13.255Z,38.50
2022-10-01T02:51:50.592Z,35.30
2022-10-01T02:54:24.344Z,31.95
2022-10-01T02:57:09.931Z,36.08
2022-10-01T02:59:37.948Z,29.13
2022-10-01T03:02:07.444Z,34.17
2022-10-01T03:04:35.435Z,33.55
2022-10-01T03:07:04.497Z,29.10
2022-10-01T03:09:32.702Z,30.92
2022-10-01T03:12:01.008Z,33.20
2022-10-01T03:14:29.558Z,28.15
2022-10-01T03:16:57.484Z,29.00
2022-10-01T03:19:26.811Z,29.75
2022-10-01T03:21:56.397Z,27.75
2022-10-01T03:24:24.320Z,28.92
2022-10-01T03:26:52.249Z,30.13
2022-10-01T03:29:20.155Z,27.77
2022-10-01T03:31:48.296Z,28.95
2022-10-01T03:34:16.318Z,30.50
2022-10-01T03:36:45.675Z,27.15
2022-10-01T03:39:14.528Z,29.67
2022-10-01T03:41:42.469Z,28.58
2022-10-01T03:44:10.370Z,30.60
2022-10-01T03:46:38.332Z,28.95
2022-10-01T03:49:06.666Z,29.00
2022-10-01T03:51:36.260Z,27.38
2022-10-01T03:54:06.988Z,27.65
2022-10-01T03:56:35.526Z,31.02
2022-10-01T03:59:03.553Z,25.25
2022-10-01T04:01:31.993Z,25.00
2022-10-01T04:04:00.223Z,26.88
2022-10-01T04:06:28.170Z,25.85
2022-10-01T04:08:56.141Z,22.55
2022-10-01T04:11:25.742Z,27.40
2022-10-01T04:13:53.668Z,27.60
2022-10-01T04:16:23.932Z,25.63
2022-10-01T04:18:51.980Z,22.83
2022-10-01T04:21:20.553Z,27.80
2022-10-01T04:23:49.863Z,23.27
2022-10-01T04:26:18.942Z,27.75
2022-10-01T04:28:48.411Z,26.33
2022-10-01T04:31:25.850Z,22.85
2022-10-01T04:33:55.121Z,26.33
2022-10-01T04:36:23.872Z,25.83
2022-10-01T04:38:54.663Z,21.80
2022-10-01T04:41:25.436Z,23.75
2022-10-01T04:43:54.692Z,25.85
2022-10-01T04:46:22.623Z,23.83
2022-10-01T04:48:50.666Z,24.50
2022-10-01T04:51:19.047Z,24.02
2022-10-01T04:53:49.221Z,24.58
2022-10-01T04:56:17.676Z,29.52
2022-10-01T04:58:45.683Z,28.77
2022-10-01T05:01:14.939Z,30.17
2022-10-01T05:03:42.863Z,30.85
2022-10-01T05:06:10.763Z,29.45
2022-10-01T05:08:39.212Z,25.33
2022-10-01T05:11:07.364Z,26.77
2022-10-01T05:13:35.326Z,29.27
2022-10-01T05:16:05.448Z,28.00
2022-10-01T05:18:34.865Z,27.88
2022-10-01T05:21:08.191Z,29.67
2022-10-01T05:23:36.116Z,28.73
2022-10-01T05:26:05.752Z,26.55
2022-10-01T05:28:35.560Z,31.73
2022-10-01T05:31:05.514Z,32.20
2022-10-01T05:33:37.720Z,35.40
2022-10-01T05:36:07.764Z,26.50
2022-10-01T05:38:37.124Z,32.45
2022-10-01T05:41:05.102Z,29.00
2022-10-01T05:43:33.243Z,32.13
2022-10-01T05:46:02.568Z,33.60
2022-10-01T05:48:37.006Z,35.42
2022-10-01T05:51:08.204Z,29.88
2022-10-01T05:53:37.559Z,28.60
2022-10-01T05:56:05.907Z,30.45
2022-10-01T05:58:35.390Z,30.90
2022-10-01T06:01:04.050Z,28.42
2022-10-01T06:03:32.117Z,26.63
2022-10-01T06:06:00.726Z,30.10
2022-10-01T06:08:30.001Z,28.58
2022-10-01T06:11:01.404Z,30.75
2022-10-01T06:13:29.776Z,27.98
2022-10-01T06:15:57.718Z,30.30
2022-10-01T06:18:27.219Z,26.25
2022-10-01T06:20:55.154Z,26.85
2022-10-01T06:23:23.142Z,32.50
2022-10-01T06:25:52.363Z,28.88
2022-10-01T06:28:22.766Z,31.23
2022-10-01T06:30:50.727Z,32.13
2022-10-01T06:33:19.029Z,30.75
2022-10-01T06:35:49.548Z,27.90
2022-10-01T06:38:19.784Z,27.95
2022-10-01T06:40:54.152Z,27.38
2022-10-01T06:43:22.597Z,27.85
2022-10-01T06:45:50.593Z,31.25
2022-10-01T06:48:19.929Z,36.42
2022-10-01T06:50:49.214Z,39.08
2022-10-01T06:53:17.648Z,32.90
2022-10-01T06:55:46.416Z,36.55
2022-10-01T06:58:17.516Z,37.03
2022-10-01T07:00:45.711Z,30.73
2022-10-01T07:03:16.369Z,33.50
2022-10-01T07:05:44.679Z,33.15
2022-10-01T07:08:13.060Z,31.40
2022-10-01T07:10:44.009Z,34.40
2022-10-01T07:13:16.010Z,30.95
2022-10-01T07:15:46.297Z,31.77
2022-10-01T07:18:17.781Z,38.35
2022-10-01T07:20:45.981Z,30.92
2022-10-01T07:23:15.547Z,31.23
2022-10-01T07:25:44.886Z,34.25
2022-10-01T07:28:18.140Z,32.38
2022-10-01T07:30:48.461Z,33.67
2022-10-01T07:33:19.129Z,33.22
2022-10-01T07:35:48.105Z,31.35
2022-10-01T07:38:16.583Z,29.13
2022-10-01T07:40:44.524Z,33.42
2022-10-01T07:43:14.565Z,35.47
2022-10-01T07:45:46.995Z,34.42
2022-10-01T07:48:15.874Z,31.23
2022-10-01T07:50:45.067Z,27.80
2022-10-01T07:53:13.694Z,33.08
2022-10-01T07:55:41.606Z,30.92
2022-10-01T07:58:10.968Z,28.75
2022-10-01T08:00:39.776Z,32.33
2022-10-01T08:03:12.008Z,30.98
2022-10-01T08:05:42.106Z,33.28
2022-10-01T08:08:10.628Z,31.20
2022-10-01T08:10:39.818Z,32.03
2022-10-01T08:13:14.412Z,34.65
2022-10-01T08:15:43.358Z,34.70
2022-10-01T08:18:13.043Z,32.90
2022-10-01T08:20:41.203Z,30.25
2022-10-01T08:23:11.293Z,28.65
2022-10-01T08:25:40.084Z,32.65
2022-10-01T08:28:08.362Z,33.08
2022-10-01T08:30:39.549Z,33.03
2022-10-01T08:33:09.661Z,29.67
2022-10-01T08:35:41.730Z,31.35
2022-10-01T08:38:10.933Z,33.03
2022-10-01T08:40:46.481Z,39.90
2022-10-01T08:43:31.105Z,33.20
2022-10-01T08:46:03.948Z,31.27
2022-10-01T08:48:44.498Z,33.15
2022-10-01T08:51:19.239Z,33.63
2022-10-01T08:53:53.989Z,34.40
2022-10-01T08:56:25.673Z,32.13
2022-10-01T08:58:58.790Z,37.13
2022-10-01T09:01:29.952Z,34.38
2022-10-01T09:04:00.709Z,30.38
2022-10-01T09:06:30.466Z,31.77
2022-10-01T09:09:13.466Z,25.13
2022-10-01T09:12:05.473Z,32.38
2022-10-01T09:14:52.049Z,29.30
2022-10-01T09:17:33.091Z,29.92
2022-10-01T09:20:12.114Z,26.05
2022-10-01T09:22:42.817Z,24.92
2022-10-01T09:25:18.002Z,27.48
2022-10-01T09:27:47.071Z,25.83
2022-10-01T09:30:18.315Z,28.92
2022-10-01T09:32:51.680Z,26.17
2022-10-01T09:35:35.010Z,24.08
2022-10-01T09:38:10.769Z,25.17
2022-10-01T09:40:46.314Z,25.10
2022-10-01T09:43:14.422Z,22.58
2022-10-01T09:45:42.758Z,23.48
2022-10-01T09:48:20.646Z,18.83
2022-10-01T09:50:56.383Z,19.08
2022-10-01T09:53:31.497Z,19.08
2022-10-01T09:56:05.967Z,17.90
2022-10-01T09:58:38.581Z,25.45
2022-10-01T10:01:18.726Z,17.90
2022-10-01T10:03:55.984Z,18.20
2022-10-01T10:06:29.272Z,20.08
2022-10-01T10:09:00.277Z,15.90
2022-10-01T10:11:31.440Z,12.90
2022-10-01T10:14:02.325Z,14.35
2022-10-01T10:16:35.572Z,12.40
2022-10-01T10:19:06.273Z,12.77
2022-10-01T10:21:35.910Z,14.90
2022-10-01T10:24:08.016Z,14.25
2022-10-01T10:26:39.365Z,14.00
2022-10-01T10:29:25.225Z,16.60
2022-10-01T10:31:55.456Z,12.65
2022-10-01T10:34:31.818Z,11.93
2022-10-01T10:37:04.938Z,15.38
2022-10-01T10:39:37.699Z,14.07
2022-10-01T10:42:07.144Z,13.38
2022-10-01T10:44:39.631Z,15.05
2022-10-01T10:47:11.262Z,13.82
2022-10-01T10:49:45.693Z,15.15
2022-10-01T10:52:23.572Z,13.88
2022-10-01T10:54:53.704Z,13.13
2022-10-01T10:57:27.706Z,11.98
2022-10-01T10:59:57.344Z,13.70
2022-10-01T11:02:26.492Z,13.38
2022-10-01T11:04:56.259Z,9.85
2022-10-01T11:07:28.695Z,9.50
2022-10-01T11:10:16.243Z,9.95
2022-10-01T11:12:58.940Z,11.70
2022-10-01T11:15:45.365Z,9.90
2022-10-01T11:18:42.715Z,10.23
2022-10-01T11:21:31.579Z,12.20
2022-10-01T11:24:11.256Z,10.88
2022-10-01T11:26:49.649Z,11.80
2022-10-01T11:29:32.767Z,12.38
2022-10-01T11:32:11.058Z,9.55
2022-10-01T11:34:55.479Z,12.45
2022-10-01T11:37:37.346Z,12.48
2022-10-01T11:40:15.389Z,10.20
2022-10-01T11:42:46.730Z,13.18
2022-10-01T11:45:23.156Z,8.82
2022-10-01T11:47:55.295Z,8.90
2022-10-01T11:50:27.093Z,13.15
2022-10-01T11:53:01.585Z,12.30
2022-10-01T11:55:52.474Z,8.38
2022-10-01T11:58:57.571Z,12.80
2022-10-01T12:01:34.327Z,15.30
2022-10-01T12:04:08.127Z,11.45
2022-10-01T12:06:41.693Z,13.10
2022-10-01T12:09:15.201Z,11.10
2022-10-01T12:11:49.304Z,12.55
2022-10-01T12:14:21.918Z,10.15
2022-10-01T12:16:55.794Z,14.40
2022-10-01T12:19:30.012Z,9.95
2022-10-01T12:22:01.483Z,17.45
2022-10-01T12:24:32.953Z,13.23
2022-10-01T12:27:30.205Z,11.50
2022-10-01T12:30:04.116Z,14.00
2022-10-01T12:32:49.549Z,17.85
2022-10-01T12:35:35.657Z,14.13
2022-10-01T12:38:17.947Z,12.50
2022-10-01T12:40:48.411Z,12.48
2022-10-01T12:43:37.413Z,13.63
2022-10-01T12:46:18.289Z,17.38
2022-10-01T12:48:57.928Z,18.33
2022-10-01T12:51:38.978Z,17.20
2022-10-01T12:54:22.049Z,19.80
2022-10-01T12:56:57.329Z,24.40
2022-10-01T12:59:41.898Z,24.65
2022-10-01T13:02:28.671Z,25.25
2022-10-01T13:05:20.084Z,28.85
2022-10-01T13:08:00.917Z,21.63
2022-10-01T13:10:48.707Z,24.13
2022-10-01T13:13:23.130Z,22.63
2022-10-01T13:15:56.079Z,24.45
2022-10-01T13:18:35.871Z,29.02
2022-10-01T13:21:11.959Z,24.77
2022-10-01T13:23:47.158Z,28.23
2022-10-01T13:26:19.393Z,26.08
2022-10-01T13:29:04.048Z,26.15
2022-10-01T13:31:42.957Z,30.60
2022-10-01T13:34:38.086Z,29.08
2022-10-01T13:37:17.286Z,25.20
2022-10-01T13:39:46.329Z,27.02
2022-10-01T13:42:38.480Z,30.80
2022-10-01T13:45:10.988Z,27.30
2022-10-01T13:47:41.152Z,28.58
2022-10-01T13:50:23.711Z,28.23
2022-10-01T13:52:52.146Z,27.13
2022-10-01T13:55:28.931Z,26.58
2022-10-01T13:58:05.086Z,28.30
2022-10-01T14:00:33.158Z,25.75
2022-10-01T14:03:04.974Z,27.35
2022-10-01T14:05:38.272Z,28.25
2022-10-01T14:08:15.410Z,21.65
2022-10-01T14:11:07.714Z,22.27
2022-10-01T14:14:01.239Z,22.65
2022-10-01T14:16:30.018Z,24.05
2022-10-01T14:19:00.644Z,26.73
2022-10-01T14:21:41.868Z,24.15
2022-10-01T14:24:23.725Z,20.95
2022-10-01T14:26:55.551Z,22.13
2022-10-01T14:29:42.169Z,19.40
2022-10-01T14:32:23.998Z,20.83
2022-10-01T14:35:11.777Z,24.25
2022-10-01T14:37:41.750Z,18.00
2022-10-01T14:40:17.538Z,21.67
2022-10-01T14:42:45.602Z,24.58
2022-10-01T14:45:18.910Z,21.08
2022-10-01T14:47:48.819Z,20.67
2022-10-01T14:50:23.046Z,21.95
2022-10-01T14:52:54.883Z,20.70
2022-10-01T14:55:24.637Z,21.50
2022-10-01T14:57:55.117Z,21.98
2022-10-01T15:00:26.676Z,21.58
2022-10-01T15:03:04.681Z,26.15
2022-10-01T15:05:34.461Z,27.75
2022-10-01T15:08:13.284Z,25.55
2022-10-01T15:10:42.754Z,25.95
2022-10-01T15:13:18.257Z,28.05
2022-10-01T15:15:46.328Z,23.88
2022-10-01T15:18:18.326Z,27.05
2022-10-01T15:20:58.737Z,25.42
2022-10-01T15:23:30.334Z,21.38
2022-10-01T15:25:59.587Z,23.88
2022-10-01T15:28:31.932Z,23.10
2022-10-01T15:31:02.366Z,21.60
2022-10-01T15:33:32.947Z,24.80
2022-10-01T15:36:03.706Z,21.60
2022-10-01T15:38:34.472Z,23.55
2022-10-01T15:41:30.065Z,26.92
2022-10-01T15:43:53.170Z,23.63
2022-10-01T15:46:29.160Z,26.35
2022-10-01T15:49:23.080Z,23.63
2022-10-01T15:52:14.073Z,24.20
2022-10-01T15:54:46.120Z,23.98
2022-10-01T15:57:20.219Z,23.45
2022-10-01T15:59:49.399Z,23.80
2022-10-01T16:02:21.281Z,24.55
2022-10-01T16:04:56.105Z,23.08
2022-10-01T16:07:30.642Z,27.92
2022-10-01T16:10:01.190Z,24.30
2022-10-01T16:12:32.756Z,23.17
2022-10-01T16:15:03.390Z,26.13
2022-10-01T16:17:34.364Z,22.67
2022-10-01T16:20:18.497Z,22.83
2022-10-01T16:22:46.466Z,33.10
2022-10-01T16:28:29.028Z,36.72
2022-10-01T16:30:57.426Z,26.20
2022-10-01T16:33:26.549Z,22.20
2022-10-01T16:36:08.224Z,22.73
2022-10-01T16:38:36.156Z,20.83
2022-10-01T16:41:05.442Z,23.00
2022-10-01T16:43:34.741Z,23.73
2022-10-01T16:46:05.280Z,25.02
2022-10-01T16:48:33.203Z,24.48
2022-10-01T16:51:01.259Z,43.90
2022-10-01T16:53:29.563Z,66.53
2022-10-01T16:55:58.071Z,60.20
2022-10-01T16:58:26.794Z,69.90
2022-10-01T17:00:56.222Z,59.25
2022-10-01T17:03:24.451Z,56.08
2022-10-01T17:05:52.562Z,67.82
2022-10-01T17:08:20.757Z,81.20
2022-10-01T17:10:53.209Z,58.78
2022-10-01T17:13:21.161Z,83.60
2022-10-01T17:15:50.655Z,73.50
2022-10-01T17:18:20.769Z,72.93
2022-10-01T17:20:48.996Z,80.43
2022-10-01T17:23:18.717Z,76.82
2022-10-01T17:25:47.275Z,57.30
2022-10-01T17:28:21.163Z,81.13
2022-10-01T17:30:50.198Z,68.90
2022-10-01T17:33:20.313Z,51.63
2022-10-01T17:35:51.647Z,57.47
2022-10-01T17:38:21.960Z,39.53
2022-10-01T17:40:55.435Z,49.40
2022-10-01T17:43:24.557Z,42.33
2022-10-01T17:45:57.414Z,40.50
2022-10-01T17:48:30.006Z,31.67
2022-10-01T17:51:03.333Z,42.30
2022-10-01T17:53:36.122Z,36.97
2022-10-01T17:56:11.022Z,35.13
2022-10-01T17:58:45.038Z,33.63
2022-10-01T18:01:21.158Z,39.85
2022-10-01T18:03:54.763Z,30.23
2022-10-01T18:06:22.845Z,29.33
2022-10-01T18:08:56.548Z,27.45
2022-10-01T18:11:25.772Z,26.80
2022-10-01T18:13:53.887Z,23.88
2022-10-01T18:16:22.476Z,24.85
2022-10-01T18:21:45.579Z,17.58
2022-10-01T18:24:15.078Z,19.30
2022-10-01T18:26:43.047Z,20.52
2022-10-01T18:29:12.538Z,25.48
2022-10-01T18:31:44.651Z,16.48
2022-10-01T18:34:21.556Z,19.30
2022-10-01T18:36:56.852Z,16.92
2022-10-01T18:39:32.529Z,17.77
2022-10-01T18:42:01.103Z,16.17
2022-10-01T18:44:29.099Z,20.85
2022-10-01T18:47:07.504Z,21.10
2022-10-01T18:49:54.967Z,16.27
2022-10-01T18:52:31.542Z,14.60
2022-10-01T18:55:21.748Z,15.13
2022-10-01T18:58:04.167Z,17.15
2022-10-01T19:00:43.279Z,17.40
2022-10-01T19:03:32.408Z,25.30
2022-10-01T19:06:26.031Z,15.38
2022-10-01T19:09:09.784Z,8.95
2022-10-01T19:11:56.281Z,7.60
2022-10-01T19:14:50.795Z,8.75
2022-10-01T19:17:35.155Z,7.05
2022-10-01T19:20:15.583Z,6.22
2022-10-01T19:22:59.358Z,6.75
2022-10-01T19:25:31.474Z,5.53
2022-10-01T19:28:11.717Z,5.18
2022-10-01T19:30:46.853Z,3.95
2022-10-01T19:33:21.066Z,5.13
2022-10-01T19:35:53.149Z,5.70
2022-10-01T19:38:29.439Z,5.43
2022-10-01T19:41:01.111Z,6.30
2022-10-01T19:43:34.442Z,4.55
2022-10-01T19:46:10.456Z,8.43
2022-10-01T19:48:49.380Z,5.38
2022-10-01T19:51:25.088Z,3.15
2022-10-01T19:54:02.086Z,3.83
2022-10-01T19:56:31.899Z,5.20
2022-10-01T19:59:03.119Z,3.05
2022-10-01T20:01:39.842Z,2.72
2022-10-01T20:04:15.777Z,2.53
2022-10-01T20:06:48.303Z,3.90
2022-10-01T20:09:28.946Z,3.13
2022-10-01T20:12:07.009Z,1.15
2022-10-01T20:15:03.943Z,3.28
2022-10-01T20:17:42.067Z,1.75
2022-10-01T20:20:19.349Z,2.28
2022-10-01T20:23:02.152Z,3.97
2022-10-01T20:25:42.696Z,1.90
2022-10-01T20:28:17.273Z,2.67
2022-10-01T20:31:01.152Z,4.50
2022-10-01T20:33:38.782Z,1.90
2022-10-01T20:36:15.318Z,3.33
2022-10-01T20:38:50.693Z,2.28
2022-10-01T20:41:23.860Z,2.75
2022-10-01T20:43:56.351Z,2.65
2022-10-01T20:46:32.249Z,5.38
2022-10-01T20:49:05.286Z,3.97
2022-10-01T20:51:40.157Z,2.90
2022-10-01T20:54:12.019Z,2.65
2022-10-01T20:56:45.391Z,5.15
2022-10-01T20:59:19.240Z,3.78
2022-10-01T21:01:54.591Z,6.05
2022-10-01T21:04:29.915Z,5.05
2022-10-01T21:07:02.847Z,3.15
2022-10-01T21:09:35.749Z,4.03
2022-10-01T21:12:11.203Z,3.10
2022-10-01T21:14:43.088Z,4.07
2022-10-01T21:17:36.603Z,4.22
2022-10-01T21:20:41.992Z,6.18
2022-10-01T21:23:21.469Z,4.18
2022-10-01T21:26:04.249Z,4.63
2022-10-01T21:28:48.342Z,4.28
2022-10-01T21:31:29.916Z,5.03
2022-10-01T21:34:03.402Z,6.43
2022-10-01T21:36:38.268Z,6.35
2022-10-01T21:39:12.629Z,4.47
2022-10-01T21:41:56.036Z,6.38
2022-10-01T21:44:46.348Z,6.82
2022-10-01T21:47:22.305Z,5.57
2022-10-01T21:50:00.973Z,6.50
2022-10-01T21:52:41.890Z,5.18
2022-10-01T21:55:33.080Z,5.57
2022-10-01T21:58:14.106Z,5.07
2022-10-01T22:00:44.518Z,5.40
2022-10-01T22:03:20.039Z,6.28
2022-10-01T22:05:54.597Z,6.18
2022-10-01T22:08:35.569Z,4.53
2022-10-01T22:11:09.998Z,6.70
2022-10-01T22:13:42.307Z,5.07
2022-10-01T22:16:15.290Z,7.38
2022-10-01T22:18:49.465Z,4.28
2022-10-01T22:21:24.418Z,5.20
2022-10-01T22:23:58.545Z,4.72
2022-10-01T22:26:30.734Z,6.68
2022-10-01T22:29:01.865Z,4.47
2022-10-01T22:31:35.013Z,6.65
2022-10-01T22:34:07.330Z,5.32
2022-10-01T22:36:41.442Z,6.95
2022-10-01T22:39:16.391Z,5.18
2022-10-01T22:41:47.721Z,5.05
2022-10-01T22:44:17.141Z,7.18
2022-10-01T22:47:02.159Z,4.43
2022-10-01T22:49:46.871Z,5.93
2022-10-01T22:52:24.909Z,4.18
2022-10-01T22:55:05.543Z,3.60
2022-10-01T22:57:58.889Z,4.90
2022-10-01T23:00:27.141Z,2.97
2022-10-01T23:03:08.782Z,4.40
2022-10-01T23:05:51.602Z,7.25
2022-10-01T23:08:26.684Z,4.40
2022-10-01T23:11:04.666Z,4.72
2022-10-01T23:13:43.691Z,5.10
2022-10-01T23:16:21.334Z,3.53
2022-10-01T23:18:59.890Z,5.10
2022-10-01T23:21:37.916Z,4.32
2022-10-01T23:24:17.890Z,4.25
2022-10-01T23:26:56.667Z,5.03
2022-10-01T23:30:11.588Z,5.88
2022-10-01T23:32:51.098Z,4.10
2022-10-01T23:35:21.537Z,5.05
2022-10-01T23:38:05.100Z,6.15
2022-10-01T23:40:37.481Z,5.15
2022-10-01T23:43:12.013Z,6.80
2022-10-01T23:45:45.618Z,3.97
2022-10-01T23:48:19.020Z,6.22
2022-10-01T23:50:56.098Z,6.97
2022-10-01T23:53:28.722Z,5.47
2022-10-01T23:56:21.097Z,4.53
2022-10-01T23:58:55.311Z,4.00
